sensor_id;sensor_type;location;lat;lon;timestamp;P1;durP1;ratioP1;P2;durP2;ratioP2
74344;SDS011;62776;50.518;6.732;2023-05-18T00:00:56;7.15;;;3.83;;
74344;SDS011;62776;50.518;6.732;2023-05-18T00:03:44;7.20;;;3.80;;
74344;SDS011;62776;50.518;6.732;2023-05-18T00:06:31;6.65;;;3.13;;
74344;SDS011;62776;50.518;6.732;2023-05-18T00:09:17;4.70;;;3.35;;
74344;SDS011;62776;50.518;6.732;2023-05-18T00:12:04;6.53;;;2.90;;
74344;SDS011;62776;50.518;6.732;2023-05-18T00:14:51;5.93;;;3.15;;
74344;SDS011;62776;50.518;6.732;2023-05-18T00:17:37;5.50;;;3.10;;
74344;SDS011;62776;50.518;6.732;2023-05-18T00:20:32;6.55;;;3.03;;
74344;SDS011;62776;50.518;6.732;2023-05-18T00:23:20;7.90;;;3.47;;
74344;SDS011;62776;50.518;6.732;2023-05-18T00:26:09;6.07;;;2.85;;
74344;SDS011;62776;50.518;6.732;2023-05-18T00:28:57;5.72;;;3.53;;
74344;SDS011;62776;50.518;6.732;2023-05-18T00:31:44;9.23;;;3.45;;
74344;SDS011;62776;50.518;6.732;2023-05-18T00:34:30;4.25;;;2.58;;
74344;SDS011;62776;50.518;6.732;2023-05-18T00:37:18;7.07;;;3.50;;
74344;SDS011;62776;50.518;6.732;2023-05-18T00:40:07;5.45;;;3.22;;
74344;SDS011;62776;50.518;6.732;2023-05-18T00:42:56;5.75;;;2.70;;
74344;SDS011;62776;50.518;6.732;2023-05-18T00:45:44;7.60;;;3.13;;
74344;SDS011;62776;50.518;6.732;2023-05-18T00:48:31;9.25;;;3.53;;
74344;SDS011;62776;50.518;6.732;2023-05-18T00:51:18;4.85;;;2.80;;
74344;SDS011;62776;50.518;6.732;2023-05-18T00:54:11;6.78;;;3.13;;
74344;SDS011;62776;50.518;6.732;2023-05-18T00:57:07;6.95;;;3.05;;
74344;SDS011;62776;50.518;6.732;2023-05-18T00:59:55;5.72;;;2.78;;
74344;SDS011;62776;50.518;6.732;2023-05-18T01:02:41;5.68;;;2.92;;
74344;SDS011;62776;50.518;6.732;2023-05-18T01:05:25;5.53;;;2.95;;
74344;SDS011;62776;50.518;6.732;2023-05-18T01:08:13;11.38;;;3.40;;
74344;SDS011;62776;50.518;6.732;2023-05-18T01:11:10;5.93;;;3.15;;
74344;SDS011;62776;50.518;6.732;2023-05-18T01:17:49;4.47;;;2.78;;
74344;SDS011;62776;50.518;6.732;2023-05-18T01:21:00;5.97;;;2.85;;
74344;SDS011;62776;50.518;6.732;2023-05-18T01:24:30;9.20;;;3.25;;
74344;SDS011;62776;50.518;6.732;2023-05-18T01:27:32;9.32;;;4.32;;
74344;SDS011;62776;50.518;6.732;2023-05-18T01:30:21;4.07;;;2.63;;
74344;SDS011;62776;50.518;6.732;2023-05-18T01:33:10;4.00;;;2.50;;
74344;SDS011;62776;50.518;6.732;2023-05-18T01:35:58;5.68;;;2.50;;
74344;SDS011;62776;50.518;6.732;2023-05-18T01:38:48;4.80;;;2.85;;
74344;SDS011;62776;50.518;6.732;2023-05-18T01:41:40;4.80;;;3.17;;
74344;SDS011;62776;50.518;6.732;2023-05-18T01:44:45;8.68;;;3.33;;
74344;SDS011;62776;50.518;6.732;2023-05-18T01:47:37;6.30;;;3.45;;
74344;SDS011;62776;50.518;6.732;2023-05-18T01:50:30;8.13;;;2.97;;
74344;SDS011;62776;50.518;6.732;2023-05-18T01:53:24;4.95;;;2.63;;
74344;SDS011;62776;50.518;6.732;2023-05-18T01:56:21;5.18;;;2.80;;
74344;SDS011;62776;50.518;6.732;2023-05-18T01:59:09;5.10;;;3.00;;
74344;SDS011;62776;50.518;6.732;2023-05-18T02:02:08;4.32;;;2.78;;
74344;SDS011;62776;50.518;6.732;2023-05-18T02:04:57;4.68;;;2.60;;
74344;SDS011;62776;50.518;6.732;2023-05-18T02:07:44;4.85;;;2.97;;
74344;SDS011;62776;50.518;6.732;2023-05-18T02:10:34;4.97;;;2.97;;
74344;SDS011;62776;50.518;6.732;2023-05-18T02:13:20;5.65;;;3.08;;
74344;SDS011;62776;50.518;6.732;2023-05-18T02:16:06;6.70;;;3.50;;
74344;SDS011;62776;50.518;6.732;2023-05-18T02:19:00;5.00;;;2.88;;
74344;SDS011;62776;50.518;6.732;2023-05-18T02:21:49;5.40;;;3.22;;
74344;SDS011;62776;50.518;6.732;2023-05-18T02:24:35;6.47;;;2.90;;
74344;SDS011;62776;50.518;6.732;2023-05-18T02:27:22;6.07;;;3.08;;
74344;SDS011;62776;50.518;6.732;2023-05-18T02:30:08;5.32;;;2.90;;
74344;SDS011;62776;50.518;6.732;2023-05-18T02:32:55;6.10;;;2.80;;
74344;SDS011;62776;50.518;6.732;2023-05-18T02:35:42;6.75;;;3.17;;
74344;SDS011;62776;50.518;6.732;2023-05-18T02:38:29;7.60;;;3.47;;
74344;SDS011;62776;50.518;6.732;2023-05-18T02:41:15;3.90;;;2.50;;
74344;SDS011;62776;50.518;6.732;2023-05-18T02:44:07;6.18;;;3.00;;
74344;SDS011;62776;50.518;6.732;2023-05-18T02:46:54;5.65;;;2.95;;
74344;SDS011;62776;50.518;6.732;2023-05-18T02:49:41;5.47;;;3.53;;
74344;SDS011;62776;50.518;6.732;2023-05-18T02:52:28;4.38;;;2.53;;
74344;SDS011;62776;50.518;6.732;2023-05-18T02:55:17;5.30;;;3.13;;
74344;SDS011;62776;50.518;6.732;2023-05-18T02:58:05;6.53;;;2.90;;
74344;SDS011;62776;50.518;6.732;2023-05-18T03:00:52;6.50;;;3.88;;
74344;SDS011;62776;50.518;6.732;2023-05-18T03:03:44;5.47;;;3.47;;
74344;SDS011;62776;50.518;6.732;2023-05-18T03:06:32;5.28;;;2.95;;
74344;SDS011;62776;50.518;6.732;2023-05-18T03:09:20;6.85;;;3.15;;
74344;SDS011;62776;50.518;6.732;2023-05-18T03:12:08;4.97;;;2.97;;
74344;SDS011;62776;50.518;6.732;2023-05-18T03:14:54;7.45;;;3.03;;
74344;SDS011;62776;50.518;6.732;2023-05-18T03:17:41;4.95;;;3.35;;
74344;SDS011;62776;50.518;6.732;2023-05-18T03:20:28;6.38;;;3.28;;
74344;SDS011;62776;50.518;6.732;2023-05-18T03:23:16;6.95;;;3.47;;
74344;SDS011;62776;50.518;6.732;2023-05-18T03:26:05;7.13;;;3.65;;
74344;SDS011;62776;50.518;6.732;2023-05-18T03:28:55;6.47;;;3.30;;
74344;SDS011;62776;50.518;6.732;2023-05-18T03:31:43;5.15;;;2.85;;
74344;SDS011;62776;50.518;6.732;2023-05-18T03:34:30;5.60;;;2.90;;
74344;SDS011;62776;50.518;6.732;2023-05-18T03:37:17;7.18;;;3.63;;
74344;SDS011;62776;50.518;6.732;2023-05-18T03:40:08;6.28;;;3.20;;
74344;SDS011;62776;50.518;6.732;2023-05-18T03:42:59;5.95;;;3.03;;
74344;SDS011;62776;50.518;6.732;2023-05-18T03:45:46;6.85;;;3.17;;
74344;SDS011;62776;50.518;6.732;2023-05-18T03:48:32;7.47;;;3.08;;
74344;SDS011;62776;50.518;6.732;2023-05-18T03:51:18;4.85;;;2.90;;
74344;SDS011;62776;50.518;6.732;2023-05-18T03:54:06;6.05;;;3.47;;
74344;SDS011;62776;50.518;6.732;2023-05-18T03:56:59;5.00;;;3.15;;
74344;SDS011;62776;50.518;6.732;2023-05-18T03:59:46;7.40;;;3.75;;
74344;SDS011;62776;50.518;6.732;2023-05-18T04:02:33;5.95;;;3.28;;
74344;SDS011;62776;50.518;6.732;2023-05-18T04:05:19;5.30;;;3.20;;
74344;SDS011;62776;50.518;6.732;2023-05-18T04:08:05;5.40;;;3.55;;
74344;SDS011;62776;50.518;6.732;2023-05-18T04:10:54;9.20;;;3.00;;
74344;SDS011;62776;50.518;6.732;2023-05-18T04:13:41;4.68;;;3.10;;
74344;SDS011;62776;50.518;6.732;2023-05-18T04:16:27;6.32;;;3.13;;
74344;SDS011;62776;50.518;6.732;2023-05-18T04:19:15;5.47;;;3.83;;
74344;SDS011;62776;50.518;6.732;2023-05-18T04:22:06;9.27;;;3.70;;
74344;SDS011;62776;50.518;6.732;2023-05-18T04:24:58;8.43;;;3.60;;
74344;SDS011;62776;50.518;6.732;2023-05-18T04:27:45;4.47;;;2.85;;
74344;SDS011;62776;50.518;6.732;2023-05-18T04:30:32;4.28;;;2.88;;
74344;SDS011;62776;50.518;6.732;2023-05-18T04:33:22;9.60;;;3.13;;
74344;SDS011;62776;50.518;6.732;2023-05-18T04:36:09;5.22;;;3.08;;
74344;SDS011;62776;50.518;6.732;2023-05-18T04:39:02;6.18;;;3.53;;
74344;SDS011;62776;50.518;6.732;2023-05-18T04:41:52;5.28;;;3.00;;
74344;SDS011;62776;50.518;6.732;2023-05-18T04:44:51;4.15;;;3.15;;
74344;SDS011;62776;50.518;6.732;2023-05-18T04:47:41;6.88;;;3.05;;
74344;SDS011;62776;50.518;6.732;2023-05-18T04:50:31;4.90;;;2.80;;
74344;SDS011;62776;50.518;6.732;2023-05-18T04:53:19;3.55;;;2.25;;
74344;SDS011;62776;50.518;6.732;2023-05-18T04:56:06;10.57;;;3.58;;
74344;SDS011;62776;50.518;6.732;2023-05-18T04:58:54;6.00;;;3.60;;
74344;SDS011;62776;50.518;6.732;2023-05-18T05:01:43;6.40;;;2.97;;
74344;SDS011;62776;50.518;6.732;2023-05-18T05:04:30;5.18;;;2.90;;
74344;SDS011;62776;50.518;6.732;2023-05-18T05:07:16;6.68;;;3.28;;
74344;SDS011;62776;50.518;6.732;2023-05-18T05:10:04;6.43;;;2.72;;
74344;SDS011;62776;50.518;6.732;2023-05-18T05:12:51;4.68;;;2.92;;
74344;SDS011;62776;50.518;6.732;2023-05-18T05:15:43;4.75;;;3.00;;
74344;SDS011;62776;50.518;6.732;2023-05-18T05:18:29;5.22;;;2.78;;
74344;SDS011;62776;50.518;6.732;2023-05-18T05:21:15;8.98;;;3.40;;
74344;SDS011;62776;50.518;6.732;2023-05-18T05:24:04;5.40;;;3.05;;
74344;SDS011;62776;50.518;6.732;2023-05-18T05:26:52;5.68;;;2.92;;
74344;SDS011;62776;50.518;6.732;2023-05-18T05:29:38;6.45;;;4.40;;
74344;SDS011;62776;50.518;6.732;2023-05-18T05:32:27;7.40;;;3.85;;
74344;SDS011;62776;50.518;6.732;2023-05-18T05:35:21;8.60;;;3.10;;
74344;SDS011;62776;50.518;6.732;2023-05-18T05:38:08;6.68;;;3.75;;
74344;SDS011;62776;50.518;6.732;2023-05-18T05:40:54;7.72;;;3.35;;
74344;SDS011;62776;50.518;6.732;2023-05-18T05:43:41;7.82;;;3.45;;
74344;SDS011;62776;50.518;6.732;2023-05-18T05:46:27;5.82;;;2.42;;
74344;SDS011;62776;50.518;6.732;2023-05-18T05:49:13;7.47;;;3.15;;
74344;SDS011;62776;50.518;6.732;2023-05-18T05:52:02;4.65;;;2.78;;
74344;SDS011;62776;50.518;6.732;2023-05-18T05:54:49;8.93;;;3.05;;
74344;SDS011;62776;50.518;6.732;2023-05-18T05:57:39;8.35;;;3.80;;
74344;SDS011;62776;50.518;6.732;2023-05-18T06:00:33;8.25;;;3.13;;
74344;SDS011;62776;50.518;6.732;2023-05-18T06:03:33;5.45;;;3.35;;
74344;SDS011;62776;50.518;6.732;2023-05-18T06:06:21;6.25;;;3.25;;
74344;SDS011;62776;50.518;6.732;2023-05-18T06:09:07;7.97;;;3.33;;
74344;SDS011;62776;50.518;6.732;2023-05-18T06:11:55;5.53;;;3.45;;
74344;SDS011;62776;50.518;6.732;2023-05-18T06:14:44;11.13;;;4.18;;
74344;SDS011;62776;50.518;6.732;2023-05-18T06:17:30;5.50;;;3.47;;
74344;SDS011;62776;50.518;6.732;2023-05-18T06:20:16;7.43;;;3.28;;
74344;SDS011;62776;50.518;6.732;2023-05-18T06:23:03;8.07;;;3.30;;
74344;SDS011;62776;50.518;6.732;2023-05-18T06:25:50;9.10;;;3.63;;
74344;SDS011;62776;50.518;6.732;2023-05-18T06:28:38;6.38;;;2.97;;
74344;SDS011;62776;50.518;6.732;2023-05-18T06:31:32;4.53;;;3.05;;
74344;SDS011;62776;50.518;6.732;2023-05-18T06:34:19;8.02;;;3.47;;
74344;SDS011;62776;50.518;6.732;2023-05-18T06:37:06;5.68;;;3.35;;
74344;SDS011;62776;50.518;6.732;2023-05-18T06:39:53;4.88;;;2.70;;
74344;SDS011;62776;50.518;6.732;2023-05-18T06:42:39;4.85;;;3.58;;
74344;SDS011;62776;50.518;6.732;2023-05-18T06:45:26;7.10;;;3.50;;
74344;SDS011;62776;50.518;6.732;2023-05-18T06:48:12;5.07;;;3.13;;
74344;SDS011;62776;50.518;6.732;2023-05-18T06:50:59;6.57;;;3.25;;
74344;SDS011;62776;50.518;6.732;2023-05-18T06:53:48;5.43;;;3.08;;
74344;SDS011;62776;50.518;6.732;2023-05-18T06:56:34;5.72;;;2.67;;
74344;SDS011;62776;50.518;6.732;2023-05-18T06:59:29;5.60;;;2.85;;
74344;SDS011;62776;50.518;6.732;2023-05-18T07:02:16;4.60;;;2.80;;
74344;SDS011;62776;50.518;6.732;2023-05-18T07:05:02;5.43;;;2.70;;
74344;SDS011;62776;50.518;6.732;2023-05-18T07:07:51;3.63;;;2.30;;
74344;SDS011;62776;50.518;6.732;2023-05-18T07:10:38;6.57;;;3.08;;
74344;SDS011;62776;50.518;6.732;2023-05-18T07:13:26;4.97;;;2.92;;
74344;SDS011;62776;50.518;6.732;2023-05-18T07:16:13;5.20;;;2.70;;
74344;SDS011;62776;50.518;6.732;2023-05-18T07:18:59;7.78;;;3.10;;
74344;SDS011;62776;50.518;6.732;2023-05-18T07:21:47;5.03;;;3.15;;
74344;SDS011;62776;50.518;6.732;2023-05-18T07:24:34;6.03;;;3.15;;
74344;SDS011;62776;50.518;6.732;2023-05-18T07:27:22;5.97;;;3.10;;
74344;SDS011;62776;50.518;6.732;2023-05-18T07:30:09;5.93;;;2.65;;
74344;SDS011;62776;50.518;6.732;2023-05-18T07:32:56;5.25;;;2.40;;
74344;SDS011;62776;50.518;6.732;2023-05-18T07:35:43;3.38;;;2.08;;
74344;SDS011;62776;50.518;6.732;2023-05-18T07:38:29;7.65;;;3.05;;
74344;SDS011;62776;50.518;6.732;2023-05-18T07:41:16;4.70;;;2.85;;
74344;SDS011;62776;50.518;6.732;2023-05-18T07:44:03;6.32;;;2.65;;
74344;SDS011;62776;50.518;6.732;2023-05-18T07:46:50;8.30;;;3.35;;
74344;SDS011;62776;50.518;6.732;2023-05-18T07:49:46;4.78;;;2.60;;
74344;SDS011;62776;50.518;6.732;2023-05-18T07:52:32;4.97;;;2.42;;
74344;SDS011;62776;50.518;6.732;2023-05-18T07:55:27;3.47;;;2.65;;
74344;SDS011;62776;50.518;6.732;2023-05-18T07:58:15;6.40;;;2.08;;
74344;SDS011;62776;50.518;6.732;2023-05-18T08:01:02;5.90;;;1.98;;
74344;SDS011;62776;50.518;6.732;2023-05-18T08:04:01;5.72;;;2.38;;
74344;SDS011;62776;50.518;6.732;2023-05-18T08:06:49;3.75;;;2.20;;
74344;SDS011;62776;50.518;6.732;2023-05-18T08:09:39;6.22;;;2.45;;
74344;SDS011;62776;50.518;6.732;2023-05-18T08:12:27;3.08;;;1.83;;
74344;SDS011;62776;50.518;6.732;2023-05-18T08:15:16;5.05;;;2.92;;
74344;SDS011;62776;50.518;6.732;2023-05-18T08:18:02;4.13;;;1.88;;
74344;SDS011;62776;50.518;6.732;2023-05-18T08:20:48;4.55;;;2.55;;
74344;SDS011;62776;50.518;6.732;2023-05-18T08:23:39;5.28;;;2.47;;
74344;SDS011;62776;50.518;6.732;2023-05-18T08:26:25;6.75;;;2.33;;
74344;SDS011;62776;50.518;6.732;2023-05-18T08:29:11;5.35;;;2.55;;
74344;SDS011;62776;50.518;6.732;2023-05-18T08:32:00;4.30;;;2.35;;
74344;SDS011;62776;50.518;6.732;2023-05-18T08:34:47;8.73;;;2.70;;
74344;SDS011;62776;50.518;6.732;2023-05-18T08:37:37;4.65;;;2.03;;
74344;SDS011;62776;50.518;6.732;2023-05-18T08:40:24;3.95;;;2.05;;
74344;SDS011;62776;50.518;6.732;2023-05-18T08:43:20;3.95;;;2.20;;
74344;SDS011;62776;50.518;6.732;2023-05-18T08:49:02;5.00;;;2.28;;
74344;SDS011;62776;50.518;6.732;2023-05-18T08:51:55;4.35;;;2.35;;
74344;SDS011;62776;50.518;6.732;2023-05-18T08:54:52;6.00;;;2.80;;
74344;SDS011;62776;50.518;6.732;2023-05-18T08:57:45;5.28;;;2.03;;
74344;SDS011;62776;50.518;6.732;2023-05-18T09:00:46;4.18;;;2.10;;
74344;SDS011;62776;50.518;6.732;2023-05-18T09:03:37;4.70;;;2.40;;
74344;SDS011;62776;50.518;6.732;2023-05-18T09:06:27;4.07;;;2.45;;
74344;SDS011;62776;50.518;6.732;2023-05-18T09:09:14;6.25;;;2.75;;
74344;SDS011;62776;50.518;6.732;2023-05-18T09:12:01;5.50;;;2.92;;
74344;SDS011;62776;50.518;6.732;2023-05-18T09:14:48;5.75;;;2.40;;
74344;SDS011;62776;50.518;6.732;2023-05-18T09:20:27;4.20;;;2.40;;
74344;SDS011;62776;50.518;6.732;2023-05-18T09:23:16;3.20;;;2.05;;
74344;SDS011;62776;50.518;6.732;2023-05-18T09:26:02;5.03;;;2.38;;
74344;SDS011;62776;50.518;6.732;2023-05-18T09:28:50;4.28;;;2.50;;
74344;SDS011;62776;50.518;6.732;2023-05-18T09:31:37;4.05;;;2.10;;
74344;SDS011;62776;50.518;6.732;2023-05-18T09:34:24;3.80;;;1.83;;
74344;SDS011;62776;50.518;6.732;2023-05-18T09:37:25;6.45;;;2.72;;
74344;SDS011;62776;50.518;6.732;2023-05-18T09:40:12;4.15;;;2.20;;
74344;SDS011;62776;50.518;6.732;2023-05-18T09:43:05;5.25;;;2.35;;
74344;SDS011;62776;50.518;6.732;2023-05-18T09:45:51;4.30;;;2.05;;
74344;SDS011;62776;50.518;6.732;2023-05-18T09:48:43;6.25;;;3.00;;
74344;SDS011;62776;50.518;6.732;2023-05-18T09:54:22;5.13;;;2.78;;
74344;SDS011;62776;50.518;6.732;2023-05-18T09:57:16;4.47;;;2.13;;
74344;SDS011;62776;50.518;6.732;2023-05-18T10:00:07;5.57;;;2.33;;
74344;SDS011;62776;50.518;6.732;2023-05-18T10:02:55;6.07;;;2.15;;
74344;SDS011;62776;50.518;6.732;2023-05-18T10:05:41;6.32;;;2.22;;
74344;SDS011;62776;50.518;6.732;2023-05-18T10:08:28;4.68;;;2.40;;
74344;SDS011;62776;50.518;6.732;2023-05-18T10:11:18;3.97;;;2.38;;
74344;SDS011;62776;50.518;6.732;2023-05-18T10:14:05;4.65;;;2.72;;
74344;SDS011;62776;50.518;6.732;2023-05-18T10:16:51;7.25;;;2.35;;
74344;SDS011;62776;50.518;6.732;2023-05-18T10:19:39;3.45;;;2.10;;
74344;SDS011;62776;50.518;6.732;2023-05-18T10:22:26;3.25;;;2.42;;
74344;SDS011;62776;50.518;6.732;2023-05-18T10:25:19;6.97;;;2.50;;
74344;SDS011;62776;50.518;6.732;2023-05-18T10:28:19;4.05;;;2.15;;
74344;SDS011;62776;50.518;6.732;2023-05-18T10:31:22;3.75;;;2.60;;
74344;SDS011;62776;50.518;6.732;2023-05-18T10:34:09;4.88;;;2.90;;
74344;SDS011;62776;50.518;6.732;2023-05-18T10:36:57;6.03;;;2.35;;
74344;SDS011;62776;50.518;6.732;2023-05-18T10:39:50;10.43;;;3.22;;
74344;SDS011;62776;50.518;6.732;2023-05-18T10:42:47;6.32;;;2.05;;
74344;SDS011;62776;50.518;6.732;2023-05-18T10:45:36;8.80;;;2.30;;
74344;SDS011;62776;50.518;6.732;2023-05-18T10:48:24;4.75;;;2.58;;
74344;SDS011;62776;50.518;6.732;2023-05-18T10:51:13;5.53;;;1.98;;
74344;SDS011;62776;50.518;6.732;2023-05-18T10:54:07;7.40;;;2.20;;
74344;SDS011;62776;50.518;6.732;2023-05-18T10:56:59;5.88;;;2.47;;
74344;SDS011;62776;50.518;6.732;2023-05-18T10:59:56;7.43;;;2.67;;
74344;SDS011;62776;50.518;6.732;2023-05-18T11:02:44;4.47;;;2.60;;
74344;SDS011;62776;50.518;6.732;2023-05-18T11:05:38;5.45;;;2.17;;
74344;SDS011;62776;50.518;6.732;2023-05-18T11:08:29;3.17;;;1.92;;
74344;SDS011;62776;50.518;6.732;2023-05-18T11:11:16;3.95;;;2.05;;
74344;SDS011;62776;50.518;6.732;2023-05-18T11:14:13;3.58;;;1.80;;
74344;SDS011;62776;50.518;6.732;2023-05-18T11:20:27;3.55;;;2.10;;
74344;SDS011;62776;50.518;6.732;2023-05-18T11:23:13;4.82;;;2.50;;
74344;SDS011;62776;50.518;6.732;2023-05-18T11:26:08;5.30;;;2.67;;
74344;SDS011;62776;50.518;6.732;2023-05-18T11:29:14;6.47;;;3.17;;
74344;SDS011;62776;50.518;6.732;2023-05-18T11:32:23;7.38;;;2.55;;
74344;SDS011;62776;50.518;6.732;2023-05-18T11:35:11;4.75;;;2.20;;
74344;SDS011;62776;50.518;6.732;2023-05-18T11:38:09;4.07;;;2.17;;
74344;SDS011;62776;50.518;6.732;2023-05-18T11:40:57;4.40;;;2.40;;
74344;SDS011;62776;50.518;6.732;2023-05-18T11:43:45;4.93;;;2.35;;
74344;SDS011;62776;50.518;6.732;2023-05-18T11:47:08;5.63;;;1.85;;
74344;SDS011;62776;50.518;6.732;2023-05-18T11:49:56;3.13;;;2.03;;
74344;SDS011;62776;50.518;6.732;2023-05-18T11:52:52;5.13;;;4.00;;
74344;SDS011;62776;50.518;6.732;2023-05-18T11:55:39;4.78;;;2.28;;
74344;SDS011;62776;50.518;6.732;2023-05-18T11:58:26;4.03;;;1.90;;
74344;SDS011;62776;50.518;6.732;2023-05-18T12:01:17;4.00;;;2.45;;
74344;SDS011;62776;50.518;6.732;2023-05-18T12:04:05;4.95;;;2.72;;
74344;SDS011;62776;50.518;6.732;2023-05-18T12:06:52;3.97;;;1.98;;
74344;SDS011;62776;50.518;6.732;2023-05-18T12:09:41;6.18;;;2.17;;
74344;SDS011;62776;50.518;6.732;2023-05-18T12:12:32;3.10;;;2.05;;
74344;SDS011;62776;50.518;6.732;2023-05-18T12:15:22;4.03;;;1.70;;
74344;SDS011;62776;50.518;6.732;2023-05-18T12:18:10;3.42;;;1.95;;
74344;SDS011;62776;50.518;6.732;2023-05-18T12:20:57;5.20;;;2.88;;
74344;SDS011;62776;50.518;6.732;2023-05-18T12:23:58;3.78;;;2.17;;
74344;SDS011;62776;50.518;6.732;2023-05-18T12:26:51;3.75;;;2.05;;
74344;SDS011;62776;50.518;6.732;2023-05-18T12:29:37;6.10;;;2.65;;
74344;SDS011;62776;50.518;6.732;2023-05-18T12:32:28;7.97;;;2.67;;
74344;SDS011;62776;50.518;6.732;2023-05-18T12:35:15;4.80;;;2.00;;
74344;SDS011;62776;50.518;6.732;2023-05-18T12:38:06;5.60;;;2.42;;
74344;SDS011;62776;50.518;6.732;2023-05-18T12:40:52;4.25;;;1.83;;
74344;SDS011;62776;50.518;6.732;2023-05-18T12:43:42;4.45;;;2.13;;
74344;SDS011;62776;50.518;6.732;2023-05-18T12:46:30;3.78;;;2.88;;
74344;SDS011;62776;50.518;6.732;2023-05-18T12:49:19;5.63;;;2.13;;
74344;SDS011;62776;50.518;6.732;2023-05-18T12:52:13;3.88;;;1.90;;
74344;SDS011;62776;50.518;6.732;2023-05-18T12:55:02;4.45;;;3.20;;
74344;SDS011;62776;50.518;6.732;2023-05-18T13:00:46;3.55;;;1.95;;
74344;SDS011;62776;50.518;6.732;2023-05-18T13:03:33;7.72;;;2.10;;
74344;SDS011;62776;50.518;6.732;2023-05-18T13:06:27;4.10;;;2.10;;
74344;SDS011;62776;50.518;6.732;2023-05-18T13:09:17;5.00;;;2.35;;
74344;SDS011;62776;50.518;6.732;2023-05-18T13:12:10;5.35;;;2.45;;
74344;SDS011;62776;50.518;6.732;2023-05-18T13:14:57;5.82;;;2.40;;
74344;SDS011;62776;50.518;6.732;2023-05-18T13:17:47;4.13;;;1.77;;
74344;SDS011;62776;50.518;6.732;2023-05-18T13:20:48;3.92;;;1.80;;
74344;SDS011;62776;50.518;6.732;2023-05-18T13:23:36;2.95;;;1.60;;
74344;SDS011;62776;50.518;6.732;2023-05-18T13:26:25;3.33;;;2.15;;
74344;SDS011;62776;50.518;6.732;2023-05-18T13:29:13;5.47;;;1.98;;
74344;SDS011;62776;50.518;6.732;2023-05-18T13:31:59;3.60;;;1.90;;
74344;SDS011;62776;50.518;6.732;2023-05-18T13:34:47;2.60;;;1.98;;
74344;SDS011;62776;50.518;6.732;2023-05-18T13:37:34;5.22;;;1.80;;
74344;SDS011;62776;50.518;6.732;2023-05-18T13:40:21;4.60;;;1.98;;
74344;SDS011;62776;50.518;6.732;2023-05-18T13:43:09;2.33;;;1.60;;
74344;SDS011;62776;50.518;6.732;2023-05-18T13:45:56;3.10;;;1.75;;
74344;SDS011;62776;50.518;6.732;2023-05-18T13:48:43;6.60;;;2.03;;
74344;SDS011;62776;50.518;6.732;2023-05-18T13:51:29;3.75;;;1.55;;
74344;SDS011;62776;50.518;6.732;2023-05-18T13:54:22;3.20;;;1.70;;
74344;SDS011;62776;50.518;6.732;2023-05-18T13:57:08;3.25;;;1.75;;
74344;SDS011;62776;50.518;6.732;2023-05-18T13:59:54;3.00;;;1.95;;
74344;SDS011;62776;50.518;6.732;2023-05-18T14:02:43;2.97;;;1.80;;
74344;SDS011;62776;50.518;6.732;2023-05-18T14:05:32;3.08;;;1.70;;
74344;SDS011;62776;50.518;6.732;2023-05-18T14:08:22;3.10;;;1.70;;
74344;SDS011;62776;50.518;6.732;2023-05-18T14:11:10;4.53;;;1.85;;
74344;SDS011;62776;50.518;6.732;2023-05-18T14:13:57;2.55;;;1.27;;
74344;SDS011;62776;50.518;6.732;2023-05-18T14:16:43;4.57;;;1.77;;
74344;SDS011;62776;50.518;6.732;2023-05-18T14:19:32;5.53;;;2.10;;
74344;SDS011;62776;50.518;6.732;2023-05-18T14:22:18;3.58;;;2.13;;
74344;SDS011;62776;50.518;6.732;2023-05-18T14:25:05;4.25;;;1.80;;
74344;SDS011;62776;50.518;6.732;2023-05-18T14:27:55;4.75;;;1.60;;
74344;SDS011;62776;50.518;6.732;2023-05-18T14:30:41;4.90;;;1.85;;
74344;SDS011;62776;50.518;6.732;2023-05-18T14:33:27;3.20;;;1.70;;
74344;SDS011;62776;50.518;6.732;2023-05-18T14:36:14;3.63;;;2.25;;
74344;SDS011;62776;50.518;6.732;2023-05-18T14:39:01;3.47;;;1.48;;
74344;SDS011;62776;50.518;6.732;2023-05-18T14:41:48;3.55;;;1.80;;
74344;SDS011;62776;50.518;6.732;2023-05-18T14:44:35;4.45;;;1.80;;
74344;SDS011;62776;50.518;6.732;2023-05-18T14:47:21;2.83;;;1.80;;
74344;SDS011;62776;50.518;6.732;2023-05-18T14:50:09;2.85;;;1.58;;
74344;SDS011;62776;50.518;6.732;2023-05-18T14:52:56;2.95;;;1.40;;
74344;SDS011;62776;50.518;6.732;2023-05-18T14:55:43;4.82;;;3.42;;
74344;SDS011;62776;50.518;6.732;2023-05-18T14:58:30;7.55;;;4.65;;
74344;SDS011;62776;50.518;6.732;2023-05-18T15:01:17;2.47;;;1.77;;
74344;SDS011;62776;50.518;6.732;2023-05-18T15:04:03;4.88;;;2.80;;
74344;SDS011;62776;50.518;6.732;2023-05-18T15:06:50;3.47;;;1.58;;
74344;SDS011;62776;50.518;6.732;2023-05-18T15:09:39;3.72;;;1.48;;
74344;SDS011;62776;50.518;6.732;2023-05-18T15:12:26;3.33;;;1.52;;
74344;SDS011;62776;50.518;6.732;2023-05-18T15:15:12;5.75;;;2.30;;
74344;SDS011;62776;50.518;6.732;2023-05-18T15:18:02;4.65;;;2.15;;
74344;SDS011;62776;50.518;6.732;2023-05-18T15:20:49;1.65;;;1.50;;
74344;SDS011;62776;50.518;6.732;2023-05-18T15:23:35;3.55;;;1.40;;
74344;SDS011;62776;50.518;6.732;2023-05-18T15:26:21;2.60;;;1.90;;
74344;SDS011;62776;50.518;6.732;2023-05-18T15:29:08;3.88;;;3.22;;
74344;SDS011;62776;50.518;6.732;2023-05-18T15:31:55;3.85;;;1.80;;
74344;SDS011;62776;50.518;6.732;2023-05-18T15:34:44;2.75;;;1.40;;
74344;SDS011;62776;50.518;6.732;2023-05-18T15:37:30;3.30;;;2.17;;
74344;SDS011;62776;50.518;6.732;2023-05-18T15:40:16;3.10;;;1.90;;
74344;SDS011;62776;50.518;6.732;2023-05-18T15:43:04;3.88;;;3.17;;
74344;SDS011;62776;50.518;6.732;2023-05-18T15:45:51;3.95;;;1.70;;
74344;SDS011;62776;50.518;6.732;2023-05-18T15:48:37;4.95;;;2.35;;
74344;SDS011;62776;50.518;6.732;2023-05-18T15:51:24;4.15;;;1.85;;
74344;SDS011;62776;50.518;6.732;2023-05-18T15:54:11;4.60;;;2.05;;
74344;SDS011;62776;50.518;6.732;2023-05-18T15:56:57;4.03;;;1.48;;
74344;SDS011;62776;50.518;6.732;2023-05-18T15:59:44;2.80;;;2.15;;
74344;SDS011;62776;50.518;6.732;2023-05-18T16:02:36;3.15;;;1.48;;
74344;SDS011;62776;50.518;6.732;2023-05-18T16:05:25;3.35;;;2.15;;
74344;SDS011;62776;50.518;6.732;2023-05-18T16:08:11;4.03;;;1.98;;
74344;SDS011;62776;50.518;6.732;2023-05-18T16:10:57;6.70;;;2.20;;
74344;SDS011;62776;50.518;6.732;2023-05-18T16:13:46;3.70;;;2.17;;
74344;SDS011;62776;50.518;6.732;2023-05-18T16:16:39;3.80;;;1.60;;
74344;SDS011;62776;50.518;6.732;2023-05-18T16:19:25;2.80;;;1.52;;
74344;SDS011;62776;50.518;6.732;2023-05-18T16:22:12;4.80;;;2.13;;
74344;SDS011;62776;50.518;6.732;2023-05-18T16:25:04;4.38;;;2.03;;
74344;SDS011;62776;50.518;6.732;2023-05-18T16:27:51;7.15;;;2.20;;
74344;SDS011;62776;50.518;6.732;2023-05-18T16:30:38;6.40;;;2.10;;
74344;SDS011;62776;50.518;6.732;2023-05-18T16:33:25;3.17;;;1.92;;
74344;SDS011;62776;50.518;6.732;2023-05-18T16:36:12;4.45;;;1.65;;
74344;SDS011;62776;50.518;6.732;2023-05-18T16:38:58;4.72;;;2.25;;
74344;SDS011;62776;50.518;6.732;2023-05-18T16:41:47;6.85;;;2.20;;
74344;SDS011;62776;50.518;6.732;2023-05-18T16:44:35;6.95;;;2.20;;
74344;SDS011;62776;50.518;6.732;2023-05-18T16:47:23;3.55;;;2.10;;
74344;SDS011;62776;50.518;6.732;2023-05-18T16:50:11;4.68;;;2.20;;
74344;SDS011;62776;50.518;6.732;2023-05-18T16:52:58;2.33;;;1.50;;
74344;SDS011;62776;50.518;6.732;2023-05-18T16:55:46;5.32;;;2.85;;
74344;SDS011;62776;50.518;6.732;2023-05-18T16:58:34;5.18;;;2.28;;
74344;SDS011;62776;50.518;6.732;2023-05-18T17:01:21;5.22;;;1.92;;
74344;SDS011;62776;50.518;6.732;2023-05-18T17:04:07;3.50;;;1.83;;
74344;SDS011;62776;50.518;6.732;2023-05-18T17:06:55;3.53;;;1.70;;
74344;SDS011;62776;50.518;6.732;2023-05-18T17:09:43;4.40;;;2.42;;
74344;SDS011;62776;50.518;6.732;2023-05-18T17:12:29;3.95;;;2.05;;
74344;SDS011;62776;50.518;6.732;2023-05-18T17:15:17;3.78;;;1.92;;
74344;SDS011;62776;50.518;6.732;2023-05-18T17:18:04;6.60;;;2.00;;